createdAt,value
2023-04-12T00:02:23.971Z,11.35
2023-04-12T00:04:55.674Z,13.73
2023-04-12T00:07:21.273Z,14.00
2023-04-12T00:09:45.976Z,14.48
2023-04-12T00:12:10.496Z,11.65
2023-04-12T00:15:18.959Z,12.60
2023-04-12T00:18:26.506Z,14.10
2023-04-12T00:21:55.905Z,13.98
2023-04-12T00:24:43.969Z,14.10
2023-04-12T00:27:08.601Z,14.00
2023-04-12T00:29:34.280Z,12.90
2023-04-12T00:32:01.642Z,12.77
2023-04-12T00:34:28.259Z,12.07
2023-04-12T00:36:52.779Z,10.30
2023-04-12T00:39:17.255Z,10.52
2023-04-12T00:41:41.804Z,9.77
2023-04-12T00:44:07.819Z,11.20
2023-04-12T00:46:34.204Z,12.27
2023-04-12T00:49:00.697Z,9.68
2023-04-12T00:51:25.539Z,10.70
2023-04-12T00:53:50.747Z,12.43
2023-04-12T00:56:15.548Z,11.35
2023-04-12T00:58:40.334Z,11.85
2023-04-12T01:01:04.865Z,11.73
2023-04-12T01:03:30.910Z,11.45
2023-04-12T01:06:10.405Z,11.57
2023-04-12T01:08:46.148Z,13.55
2023-04-12T01:11:21.768Z,13.82
2023-04-12T01:13:52.906Z,12.27
2023-04-12T01:16:28.236Z,11.82
2023-04-12T01:18:58.167Z,13.73
2023-04-12T01:21:32.892Z,12.18
2023-04-12T01:24:24.744Z,15.25
2023-04-12T01:26:51.482Z,14.60
2023-04-12T01:29:20.708Z,13.57
2023-04-12T01:31:53.310Z,15.43
2023-04-12T01:34:21.631Z,14.45
2023-04-12T01:36:48.798Z,15.20
2023-04-12T01:39:13.425Z,13.45
2023-04-12T01:41:42.244Z,13.85
2023-04-12T01:44:07.008Z,14.90
2023-04-12T01:46:34.517Z,15.10
2023-04-12T01:48:59.902Z,11.95
2023-04-12T01:51:35.679Z,16.35
2023-04-12T01:54:04.318Z,16.05
2023-04-12T01:56:32.471Z,17.50
2023-04-12T01:58:57.585Z,23.35
2023-04-12T02:01:23.685Z,18.13
2023-04-12T02:03:51.154Z,17.42
2023-04-12T02:06:16.009Z,19.50
2023-04-12T02:08:40.517Z,19.17
2023-04-12T02:11:10.565Z,17.33
2023-04-12T02:13:35.135Z,17.88
2023-04-12T02:16:20.659Z,18.13
2023-04-12T02:18:45.314Z,22.30
2023-04-12T02:21:13.575Z,21.23
2023-04-12T02:23:38.105Z,19.27
2023-04-12T02:26:04.678Z,17.73
2023-04-12T02:28:29.968Z,15.38
2023-04-12T02:30:55.529Z,18.13
2023-04-12T02:33:22.130Z,24.58
2023-04-12T02:35:47.769Z,18.52
2023-04-12T02:38:18.416Z,19.33
2023-04-12T02:40:46.135Z,26.50
2023-04-12T02:43:15.580Z,21.70
2023-04-12T02:45:44.038Z,20.73
2023-04-12T02:48:08.971Z,21.85
2023-04-12T02:50:34.126Z,19.10
2023-04-12T02:53:11.104Z,19.63
2023-04-12T02:55:40.511Z,22.25
2023-04-12T02:58:06.517Z,18.67
2023-04-12T03:00:36.890Z,20.65
2023-04-12T03:03:03.086Z,21.00
2023-04-12T03:05:29.011Z,22.63
2023-04-12T03:07:54.214Z,22.40
2023-04-12T03:10:24.912Z,25.20
2023-04-12T03:13:05.054Z,21.85
2023-04-12T03:19:19.550Z,24.08
2023-04-12T03:21:50.017Z,22.95
2023-04-12T03:24:15.287Z,21.98
2023-04-12T03:26:41.736Z,20.88
2023-04-12T03:29:16.352Z,23.45
2023-04-12T03:31:42.476Z,23.90
2023-04-12T03:34:08.436Z,18.48
2023-04-12T03:36:36.200Z,21.48
2023-04-12T03:39:08.265Z,18.30
2023-04-12T03:41:35.628Z,21.80
2023-04-12T03:44:02.106Z,19.05
2023-04-12T03:46:29.533Z,20.88
2023-04-12T03:48:58.250Z,23.83
2023-04-12T03:51:27.005Z,19.20
2023-04-12T03:53:57.535Z,23.15
2023-04-12T03:56:22.799Z,21.23
2023-04-12T03:58:50.986Z,19.67
2023-04-12T04:01:18.098Z,22.17
2023-04-12T04:03:46.607Z,22.00
2023-04-12T04:06:21.363Z,19.98
2023-04-12T04:08:46.297Z,21.42
2023-04-12T04:11:12.376Z,21.42
2023-04-12T04:13:40.219Z,21.98
2023-04-12T04:16:09.926Z,18.85
2023-04-12T04:18:36.772Z,19.42
2023-04-12T04:21:04.913Z,23.35
2023-04-12T04:23:39.011Z,24.05
2023-04-12T04:26:05.472Z,21.92
2023-04-12T04:28:29.958Z,19.30
2023-04-12T04:30:56.241Z,20.90
2023-04-12T04:33:21.990Z,18.38
2023-04-12T04:35:52.114Z,19.05
2023-04-12T04:38:44.999Z,18.50
2023-04-12T04:41:24.477Z,18.58
2023-04-12T04:43:56.005Z,20.90
2023-04-12T04:46:25.786Z,19.13
2023-04-12T04:48:51.897Z,18.38
2023-04-12T04:51:16.854Z,20.42
2023-04-12T04:53:41.540Z,17.25
2023-04-12T04:56:11.822Z,19.23
2023-04-12T04:58:37.057Z,23.42
2023-04-12T05:01:03.640Z,19.25
2023-04-12T05:03:30.762Z,19.20
2023-04-12T05:05:57.517Z,20.30
2023-04-12T05:08:22.183Z,19.88
2023-04-12T05:10:51.594Z,17.58
2023-04-12T05:13:36.100Z,20.05
2023-04-12T05:16:01.370Z,19.55
2023-04-12T05:18:26.448Z,20.20
2023-04-12T05:20:51.806Z,17.65
2023-04-12T05:23:17.510Z,18.92
2023-04-12T05:25:48.450Z,21.40
2023-04-12T05:28:14.440Z,22.25
2023-04-12T05:30:41.292Z,20.00
2023-04-12T05:33:07.722Z,20.42
2023-04-12T05:35:37.322Z,18.38
2023-04-12T05:38:02.011Z,20.08
2023-04-12T05:40:26.851Z,19.90
2023-04-12T05:42:52.644Z,21.63
2023-04-12T05:45:17.441Z,23.35
2023-04-12T05:47:43.487Z,18.80
2023-04-12T05:50:09.815Z,18.95
2023-04-12T05:52:34.679Z,19.95
2023-04-12T05:54:59.990Z,21.20
2023-04-12T05:57:27.682Z,17.75
2023-04-12T05:59:52.266Z,22.70
2023-04-12T06:02:16.973Z,20.58
2023-04-12T06:04:50.735Z,22.25
2023-04-12T06:07:19.591Z,19.70
2023-04-12T06:09:44.229Z,17.88
2023-04-12T06:12:09.508Z,20.23
2023-04-12T06:14:33.937Z,21.80
2023-04-12T06:16:58.924Z,21.02
2023-04-12T06:19:23.386Z,15.52
2023-04-12T06:21:49.960Z,19.55
2023-04-12T06:24:14.567Z,21.10
2023-04-12T06:26:41.556Z,17.88
2023-04-12T06:29:06.750Z,20.23
2023-04-12T06:31:31.677Z,19.15
2023-04-12T06:33:56.164Z,18.25
2023-04-12T06:36:20.876Z,20.70
2023-04-12T06:38:46.762Z,19.45
2023-04-12T06:41:11.750Z,17.60
2023-04-12T06:43:37.123Z,20.73
2023-04-12T06:46:03.149Z,15.13
2023-04-12T06:48:28.797Z,15.30
2023-04-12T06:50:53.635Z,15.13
2023-04-12T06:53:18.144Z,17.23
2023-04-12T06:55:44.332Z,17.13
2023-04-12T06:58:09.078Z,21.48
2023-04-12T07:00:33.685Z,14.93
2023-04-12T07:02:58.471Z,9.68
2023-04-12T07:05:23.533Z,11.38
2023-04-12T07:07:48.056Z,11.15
2023-04-12T07:10:12.914Z,12.05
2023-04-12T07:12:38.791Z,10.48
2023-04-12T07:15:03.343Z,6.75
2023-04-12T07:17:28.132Z,8.50
2023-04-12T07:19:54.344Z,13.10
2023-04-12T07:22:18.849Z,9.95
2023-04-12T07:24:43.404Z,12.80
2023-04-12T07:27:08.069Z,9.63
2023-04-12T07:29:34.021Z,9.25
2023-04-12T07:31:59.879Z,9.40
2023-04-12T07:34:24.864Z,10.60
2023-04-12T07:36:49.323Z,9.00
2023-04-12T07:39:15.785Z,8.43
2023-04-12T07:41:42.267Z,11.52
2023-04-12T07:44:07.091Z,6.82
2023-04-12T07:46:33.230Z,8.63
2023-04-12T07:48:58.064Z,9.70
2023-04-12T07:51:23.037Z,10.68
2023-04-12T07:53:49.828Z,12.18
2023-04-12T07:56:23.234Z,12.90
2023-04-12T07:58:48.059Z,15.93
2023-04-12T08:01:17.040Z,14.27
2023-04-12T08:03:45.938Z,22.02
2023-04-12T08:06:10.957Z,21.25
2023-04-12T08:08:38.915Z,23.63
2023-04-12T08:11:06.309Z,31.88
2023-04-12T08:13:33.754Z,23.73
2023-04-12T08:16:00.382Z,28.88
2023-04-12T08:18:25.086Z,29.17
2023-04-12T08:20:51.108Z,33.45
2023-04-12T08:23:15.954Z,29.65
2023-04-12T08:25:40.595Z,30.58
2023-04-12T08:28:09.041Z,37.55
2023-04-12T08:30:33.727Z,34.42
2023-04-12T08:32:58.438Z,35.20
2023-04-12T08:35:23.767Z,35.08
2023-04-12T08:37:55.282Z,30.65
2023-04-12T08:40:21.854Z,30.30
2023-04-12T08:42:46.825Z,29.05
2023-04-12T08:45:13.334Z,23.70
2023-04-12T08:47:39.711Z,22.05
2023-04-12T08:50:08.300Z,17.98
2023-04-12T08:52:36.261Z,16.33
2023-04-12T08:55:04.281Z,19.40
2023-04-12T08:57:31.572Z,15.85
2023-04-12T08:59:59.874Z,16.42
2023-04-12T09:02:24.618Z,18.27
2023-04-12T09:04:50.283Z,16.77
2023-04-12T09:07:14.978Z,18.83
2023-04-12T09:09:43.316Z,17.92
2023-04-12T09:12:11.208Z,12.27
2023-04-12T09:14:35.966Z,17.65
2023-04-12T09:17:00.737Z,23.60
2023-04-12T09:19:37.637Z,18.05
2023-04-12T09:22:02.460Z,18.55
2023-04-12T09:24:26.935Z,15.40
2023-04-12T09:26:51.781Z,12.57
2023-04-12T09:29:26.287Z,24.98
2023-04-12T09:31:57.860Z,19.55
2023-04-12T09:34:22.504Z,19.15
2023-04-12T09:36:47.085Z,20.13
2023-04-12T09:39:14.535Z,20.38
2023-04-12T09:41:39.050Z,20.60
2023-04-12T09:44:03.946Z,23.20
2023-04-12T09:46:30.324Z,30.35
2023-04-12T09:48:56.706Z,18.35
2023-04-12T09:51:29.332Z,25.42
2023-04-12T09:53:54.889Z,24.88
2023-04-12T09:56:24.094Z,17.73
2023-04-12T09:58:50.410Z,19.07
2023-04-12T10:01:17.587Z,22.80
2023-04-12T10:03:43.895Z,23.63
2023-04-12T10:06:10.345Z,26.67
2023-04-12T10:08:35.246Z,28.25
2023-04-12T10:11:05.316Z,21.85
2023-04-12T10:13:32.914Z,33.70
2023-04-12T10:15:57.660Z,26.85
2023-04-12T10:18:23.691Z,25.73
2023-04-12T10:20:49.576Z,24.05
2023-04-12T10:23:15.923Z,24.42
2023-04-12T10:25:42.265Z,20.98
2023-04-12T10:28:16.118Z,20.77
2023-04-12T10:30:40.835Z,31.15
2023-04-12T10:33:26.353Z,18.90
2023-04-12T10:35:56.741Z,31.00
2023-04-12T10:38:21.984Z,23.10
2023-04-12T10:41:14.756Z,18.85
2023-04-12T10:43:40.289Z,17.50
2023-04-12T10:46:06.907Z,20.10
2023-04-12T10:48:32.777Z,17.20
2023-04-12T10:51:23.565Z,40.20
2023-04-12T10:53:48.274Z,19.63
2023-04-12T10:56:40.641Z,15.95
2023-04-12T10:59:08.500Z,20.85
2023-04-12T11:01:39.754Z,30.50
2023-04-12T11:04:26.510Z,22.52
2023-04-12T11:07:11.333Z,19.38
2023-04-12T11:09:59.228Z,21.10
2023-04-12T11:12:29.296Z,18.73
2023-04-12T11:14:54.156Z,23.83
2023-04-12T11:17:24.341Z,24.58
2023-04-12T11:19:52.814Z,21.80
2023-04-12T11:22:19.917Z,19.92
2023-04-12T11:24:46.005Z,16.85
2023-04-12T11:27:11.059Z,17.58
2023-04-12T11:29:35.818Z,20.20
2023-04-12T11:32:03.589Z,17.00
2023-04-12T11:34:28.167Z,18.95
2023-04-12T11:36:55.874Z,16.10
2023-04-12T11:39:22.965Z,19.33
2023-04-12T11:41:47.787Z,15.40
2023-04-12T11:44:12.527Z,18.33
2023-04-12T11:46:39.361Z,14.55
2023-04-12T11:49:03.962Z,15.40
2023-04-12T11:51:32.539Z,18.42
2023-04-12T11:53:59.085Z,14.63
2023-04-12T11:56:25.438Z,15.02
2023-04-12T11:58:50.335Z,14.57
2023-04-12T12:01:18.476Z,12.95
2023-04-12T12:03:43.642Z,14.65
2023-04-12T12:06:09.338Z,16.25
2023-04-12T12:08:34.430Z,12.57
2023-04-12T12:11:07.387Z,16.48
2023-04-12T12:13:48.296Z,25.63
2023-04-12T12:16:13.610Z,19.40
2023-04-12T12:18:42.704Z,45.97
2023-04-12T12:21:10.398Z,31.27
2023-04-12T12:23:35.711Z,16.98
2023-04-12T12:26:17.055Z,11.73
2023-04-12T12:28:43.310Z,15.02
2023-04-12T12:31:12.591Z,16.13
2023-04-12T12:33:46.314Z,15.45
2023-04-12T12:36:32.895Z,19.40
2023-04-12T12:38:58.192Z,17.73
2023-04-12T12:41:24.052Z,20.00
2023-04-12T12:43:48.799Z,20.05
2023-04-12T12:46:15.323Z,17.98
2023-04-12T12:48:42.084Z,18.13
2023-04-12T12:51:20.301Z,19.17
2023-04-12T12:53:45.422Z,19.67
2023-04-12T12:56:11.248Z,19.63
2023-04-12T12:58:41.001Z,19.48
2023-04-12T13:03:32.509Z,16.20
2023-04-12T13:05:57.389Z,18.85
2023-04-12T13:08:22.006Z,24.80
2023-04-12T13:10:52.274Z,23.40
2023-04-12T13:13:17.207Z,20.40
2023-04-12T13:15:41.628Z,15.98
2023-04-12T13:18:06.689Z,24.88
2023-04-12T13:20:32.768Z,19.67
2023-04-12T13:22:57.392Z,25.95
2023-04-12T13:25:22.611Z,19.23
2023-04-12T13:27:47.182Z,24.80
2023-04-12T13:30:12.181Z,19.13
2023-04-12T13:32:37.003Z,17.10
2023-04-12T13:35:02.633Z,19.58
2023-04-12T13:37:29.123Z,18.33
2023-04-12T13:39:53.772Z,26.33
2023-04-12T13:42:18.324Z,21.85
2023-04-12T13:44:43.350Z,23.10
2023-04-12T13:47:07.860Z,18.55
2023-04-12T13:49:32.339Z,18.23
2023-04-12T13:51:57.498Z,18.50
2023-04-12T13:54:23.955Z,19.52
2023-04-12T13:56:48.890Z,21.15
2023-04-12T13:59:13.561Z,17.33
2023-04-12T14:01:47.766Z,21.70
2023-04-12T14:04:12.702Z,18.05
2023-04-12T14:06:38.833Z,22.80
2023-04-12T14:09:06.940Z,20.23
2023-04-12T14:11:46.113Z,23.13
2023-04-12T14:14:10.775Z,22.20
2023-04-12T14:16:35.505Z,20.00
2023-04-12T14:19:00.392Z,22.98
2023-04-12T14:21:29.202Z,22.95
2023-04-12T14:23:58.841Z,26.65
2023-04-12T14:26:26.559Z,17.30
2023-04-12T14:28:52.569Z,30.55
2023-04-12T14:31:26.231Z,17.60
2023-04-12T14:33:51.149Z,19.05
2023-04-12T14:36:15.871Z,18.05
2023-04-12T14:38:42.075Z,21.50
2023-04-12T14:41:10.386Z,18.65
2023-04-12T14:43:35.197Z,22.13
2023-04-12T14:46:01.497Z,25.75
2023-04-12T14:48:26.545Z,16.45
2023-04-12T14:50:51.223Z,17.33
2023-04-12T14:53:18.439Z,18.67
2023-04-12T14:55:43.160Z,20.17
2023-04-12T14:58:07.738Z,15.80
2023-04-12T15:00:37.954Z,19.73
2023-04-12T15:03:05.585Z,18.92
2023-04-12T15:05:33.171Z,20.25
2023-04-12T15:07:57.931Z,15.95
2023-04-12T15:10:22.690Z,16.25
2023-04-12T15:12:47.120Z,18.85
2023-04-12T15:15:12.360Z,15.45
2023-04-12T15:17:37.400Z,20.10
2023-04-12T15:20:09.122Z,26.48
2023-04-12T15:22:36.422Z,19.15
2023-04-12T15:25:02.273Z,18.85
2023-04-12T15:27:28.277Z,19.55
2023-04-12T15:29:52.712Z,17.88
2023-04-12T15:32:17.269Z,19.77
2023-04-12T15:34:41.746Z,16.30
2023-04-12T15:37:07.853Z,19.80
2023-04-12T15:39:32.356Z,18.63
2023-04-12T15:41:56.870Z,17.38
2023-04-12T15:44:23.699Z,23.27
2023-04-12T15:46:59.522Z,21.95
2023-04-12T15:49:35.803Z,20.55
2023-04-12T15:52:00.386Z,16.67
2023-04-12T15:54:26.315Z,19.08
2023-04-12T15:56:51.106Z,19.98
2023-04-12T15:59:18.741Z,18.48
2023-04-12T16:01:43.570Z,16.55
2023-04-12T16:04:08.274Z,18.60
2023-04-12T16:06:34.847Z,18.85
2023-04-12T16:08:59.431Z,22.00
2023-04-12T16:11:25.630Z,24.05
2023-04-12T16:13:50.640Z,21.50
2023-04-12T16:16:17.632Z,17.83
2023-04-12T16:18:43.237Z,19.00
2023-04-12T16:21:10.703Z,17.73
2023-04-12T16:23:35.921Z,17.60
2023-04-12T16:26:01.882Z,16.90
2023-04-12T16:28:29.112Z,19.42
2023-04-12T16:30:53.945Z,17.50
2023-04-12T16:33:26.267Z,19.95
2023-04-12T16:35:52.622Z,19.50
2023-04-12T16:38:18.744Z,21.48
2023-04-12T16:40:43.444Z,19.33
2023-04-12T16:43:10.513Z,20.52
2023-04-12T16:45:37.537Z,22.55
2023-04-12T16:48:07.074Z,20.77
2023-04-12T16:50:34.833Z,23.05
2023-04-12T16:53:02.387Z,25.92
2023-04-12T16:55:27.835Z,27.20
2023-04-12T16:57:54.026Z,23.80
2023-04-12T17:00:22.553Z,21.63
2023-04-12T17:02:51.923Z,24.02
2023-04-12T17:05:18.178Z,19.65
2023-04-12T17:07:43.261Z,24.02
2023-04-12T17:10:10.660Z,23.65
2023-04-12T17:12:35.379Z,19.90
2023-04-12T17:15:01.724Z,19.45
2023-04-12T17:17:28.246Z,20.17
2023-04-12T17:19:54.268Z,21.20
2023-04-12T17:22:19.793Z,17.50
2023-04-12T17:24:45.048Z,13.70
2023-04-12T17:27:09.801Z,14.30
2023-04-12T17:29:34.326Z,18.20
2023-04-12T17:31:59.090Z,15.88
2023-04-12T17:34:23.870Z,15.38
2023-04-12T17:36:55.361Z,17.13
2023-04-12T17:39:20.305Z,16.73
2023-04-12T17:41:44.767Z,18.42
2023-04-12T17:44:09.393Z,18.60
2023-04-12T17:46:34.815Z,19.45
2023-04-12T17:49:02.688Z,16.52
2023-04-12T17:51:27.262Z,20.25
2023-04-12T17:53:55.246Z,16.13
2023-04-12T17:56:21.002Z,17.00
2023-04-12T17:58:46.245Z,20.52
2023-04-12T18:01:12.470Z,21.10
2023-04-12T18:03:38.495Z,20.35
2023-04-12T18:06:04.369Z,20.05
2023-04-12T18:08:29.138Z,19.13
2023-04-12T18:10:55.290Z,25.85
2023-04-12T18:13:19.954Z,18.83
2023-04-12T18:15:44.958Z,19.73
2023-04-12T18:18:09.760Z,20.15
2023-04-12T18:20:37.746Z,19.42
2023-04-12T18:23:02.812Z,17.48
2023-04-12T18:25:27.815Z,19.02
2023-04-12T18:27:59.339Z,24.30
2023-04-12T18:30:27.649Z,17.60
2023-04-12T18:32:53.290Z,20.65
2023-04-12T18:35:19.186Z,18.95
2023-04-12T18:37:44.490Z,23.45
2023-04-12T18:40:12.712Z,26.02
2023-04-12T18:42:38.940Z,24.27
2023-04-12T18:45:06.288Z,31.33
2023-04-12T18:47:31.397Z,23.35
2023-04-12T18:49:57.157Z,21.38
2023-04-12T18:52:22.674Z,23.92
2023-04-12T18:54:47.673Z,20.17
2023-04-12T18:57:12.380Z,24.70
2023-04-12T18:59:37.239Z,24.85
2023-04-12T19:02:03.883Z,25.75
2023-04-12T19:04:32.059Z,24.17
2023-04-12T19:06:58.138Z,22.33
2023-04-12T19:09:22.786Z,23.30
2023-04-12T19:11:47.236Z,29.80
2023-04-12T19:14:11.697Z,21.77
2023-04-12T19:16:36.873Z,23.55
2023-04-12T19:19:02.928Z,30.67
2023-04-12T19:21:28.224Z,24.42
2023-04-12T19:23:53.203Z,25.65
2023-04-12T19:26:19.066Z,23.95
2023-04-12T19:28:45.926Z,25.65
2023-04-12T19:31:10.849Z,24.77
2023-04-12T19:33:35.615Z,22.13
2023-04-12T19:36:04.117Z,24.10
2023-04-12T19:38:29.124Z,21.92
2023-04-12T19:40:58.231Z,24.80
2023-04-12T19:43:23.732Z,24.50
2023-04-12T19:45:48.719Z,27.20
2023-04-12T19:48:14.511Z,25.77
2023-04-12T19:50:39.837Z,21.42
2023-04-12T19:53:06.352Z,23.90
2023-04-12T19:55:31.139Z,21.45
2023-04-12T19:57:56.790Z,24.13
2023-04-12T20:00:23.429Z,22.60
2023-04-12T20:02:48.860Z,23.83
2023-04-12T20:05:13.738Z,21.10
2023-04-12T20:07:38.965Z,24.15
2023-04-12T20:10:06.314Z,25.08
2023-04-12T20:12:33.310Z,26.38
2023-04-12T20:15:14.835Z,25.20
2023-04-12T20:17:44.747Z,24.08
2023-04-12T20:22:35.663Z,27.95
2023-04-12T20:25:00.178Z,26.42
2023-04-12T20:27:28.235Z,24.90
2023-04-12T20:29:55.550Z,25.13
2023-04-12T20:32:19.953Z,24.20
2023-04-12T20:34:46.830Z,25.10
2023-04-12T20:37:11.367Z,24.15
2023-04-12T20:39:38.751Z,24.52
2023-04-12T20:42:06.679Z,31.45
2023-04-12T20:44:32.655Z,19.05
2023-04-12T20:46:59.108Z,22.23
2023-04-12T20:49:27.915Z,23.88
2023-04-12T20:51:56.765Z,23.55
2023-04-12T20:54:27.834Z,27.15
2023-04-12T20:56:52.333Z,22.55
2023-04-12T20:59:17.594Z,20.50
2023-04-12T21:01:45.899Z,24.52
2023-04-12T21:04:10.705Z,22.80
2023-04-12T21:06:37.543Z,22.95
2023-04-12T21:09:05.939Z,24.25
2023-04-12T21:11:31.711Z,21.48
2023-04-12T21:13:56.109Z,21.58
2023-04-12T21:16:20.949Z,20.00
2023-04-12T21:18:46.825Z,27.08
2023-04-12T21:21:11.683Z,25.40
2023-04-12T21:23:36.180Z,23.05
2023-04-12T21:26:02.478Z,22.60
2023-04-12T21:28:29.665Z,25.83
2023-04-12T21:30:56.499Z,30.20
2023-04-12T21:33:24.685Z,25.65
2023-04-12T21:35:50.722Z,23.65
2023-04-12T21:38:15.143Z,26.30
2023-04-12T21:40:39.673Z,22.45
2023-04-12T21:43:04.425Z,27.40
2023-04-12T21:45:29.208Z,24.83
2023-04-12T21:47:54.833Z,24.42
2023-04-12T21:50:19.365Z,21.98
2023-04-12T21:52:45.640Z,23.98
2023-04-12T21:55:10.416Z,24.88
2023-04-12T21:57:35.986Z,21.33
2023-04-12T22:00:00.549Z,21.35
2023-04-12T22:02:25.791Z,21.42
2023-04-12T22:04:50.890Z,23.45
2023-04-12T22:07:17.586Z,26.05
2023-04-12T22:09:43.484Z,28.65
2023-04-12T22:12:08.002Z,24.30
2023-04-12T22:14:32.506Z,24.27
2023-04-12T22:16:57.680Z,28.35
2023-04-12T22:19:22.355Z,26.60
2023-04-12T22:21:49.012Z,33.58
2023-04-12T22:24:13.553Z,30.92
2023-04-12T22:26:39.433Z,30.65
2023-04-12T22:29:04.508Z,28.67
2023-04-12T22:31:28.989Z,24.38
2023-04-12T22:33:55.265Z,22.13
2023-04-12T22:36:19.748Z,20.02
2023-04-12T22:38:44.236Z,35.05
2023-04-12T22:41:08.676Z,24.70
2023-04-12T22:43:41.931Z,22.95
2023-04-12T22:46:06.729Z,21.17
2023-04-12T22:48:32.353Z,22.70
2023-04-12T22:50:56.987Z,20.33
2023-04-12T22:53:22.410Z,21.52
2023-04-12T22:55:47.641Z,28.65
2023-04-12T22:58:12.071Z,24.23
2023-04-12T23:00:39.367Z,28.13
2023-04-12T23:03:04.472Z,32.28
2023-04-12T23:05:29.357Z,30.55
2023-04-12T23:07:53.961Z,21.48
2023-04-12T23:10:20.652Z,27.20
2023-04-12T23:12:46.574Z,25.80
2023-04-12T23:15:12.760Z,26.50
2023-04-12T23:17:38.938Z,25.20
2023-04-12T23:20:05.624Z,28.05
2023-04-12T23:22:55.788Z,30.45
2023-04-12T23:25:25.358Z,28.92
2023-04-12T23:27:49.927Z,29.15
2023-04-12T23:30:16.009Z,28.08
2023-04-12T23:32:41.878Z,29.90
2023-04-12T23:35:07.332Z,33.53
2023-04-12T23:37:32.283Z,31.00
2023-04-12T23:40:05.629Z,25.13
2023-04-12T23:42:30.068Z,27.27
2023-04-12T23:44:54.670Z,28.35
2023-04-12T23:47:19.280Z,34.88
2023-04-12T23:49:45.095Z,32.45
2023-04-12T23:52:09.599Z,32.85
2023-04-12T23:54:33.975Z,36.95
2023-04-12T23:56:58.413Z,38.13
2023-04-12T23:59:22.901Z,41.22
